Time;durP1;ratioP1;P1;durP2;ratioP2;P2;SDS_P1;SDS_P2;PMS_P1;PMS_P2;Temp;Humidity;BMP_temperature;BMP_pressure;BME280_temperature;BME280_humidity;BME280_pressure;Samples;Min_cycle;Max_cycle;Signal;HPM_P1;HPM_P2
2022/12/24 00:02:33;;;;;;;6.25;1.77;;;;;11.60;95566.00;;;;8280939;28;20239;-78
2022/12/24 00:06:37;;;;;;;10.43;2.80;;;;;11.60;95571.00;;;;8282046;28;20226;-77
2022/12/24 00:10:40;;;;;;;4.10;1.50;;;;;11.60;95568.00;;;;8285488;28;20201;-78
2022/12/24 00:14:44;;;;;;;7.57;2.13;;;;;11.60;95581.00;;;;8272840;28;20199;-75
2022/12/24 00:18:47;;;;;;;3.70;1.80;;;;;11.60;95571.00;;;;8285086;28;20206;-77
2022/12/24 00:22:50;;;;;;;6.57;1.90;;;;;11.60;95567.00;;;;8282968;28;20225;-82
2022/12/24 00:26:53;;;;;;;9.80;1.83;;;;;11.60;95576.00;;;;8269534;28;20224;-77
2022/12/24 00:31:08;;;;;;;5.05;1.50;;;;;11.60;95572.00;;;;8281614;28;20201;-80
2022/12/24 00:35:11;;;;;;;5.15;1.58;;;;;11.60;95576.00;;;;8282917;28;20835;-77
2022/12/24 00:39:14;;;;;;;3.78;1.70;;;;;11.60;95583.00;;;;8279177;28;20194;-80
2022/12/24 00:43:17;;;;;;;3.47;1.50;;;;;11.50;95596.00;;;;8277864;28;20236;-84
2022/12/24 00:47:22;;;;;;;6.03;1.85;;;;;11.50;95591.00;;;;8285227;28;20764;-78
2022/12/24 00:51:25;;;;;;;3.92;1.38;;;;;11.40;95597.00;;;;8278166;28;20202;-80
2022/12/24 00:55:28;;;;;;;6.95;1.77;;;;;11.40;95601.00;;;;8287170;28;20571;-77
2022/12/24 00:59:31;;;;;;;3.22;1.40;;;;;11.30;95596.00;;;;8278324;28;20268;-81
2022/12/24 01:03:36;;;;;;;4.28;1.50;;;;;11.20;95597.00;;;;8280661;28;20246;-80
2022/12/24 01:07:42;;;;;;;6.35;2.05;;;;;11.20;95592.00;;;;8286106;28;20196;-79
2022/12/24 01:11:51;;;;;;;6.20;1.50;;;;;11.10;95592.00;;;;8273922;28;20206;-80
2022/12/24 01:15:54;;;;;;;6.63;2.40;;;;;11.10;95593.00;;;;8277275;28;20248;-80
2022/12/24 01:20:01;;;;;;;7.43;2.70;;;;;11.10;95609.00;;;;8271787;28;20202;-76
2022/12/24 01:24:04;;;;;;;12.95;2.03;;;;;11.00;95611.00;;;;8275959;28;20207;-79
2022/12/24 01:28:07;;;;;;;5.68;1.73;;;;;11.00;95621.00;;;;8277216;28;20226;-79
2022/12/24 01:32:10;;;;;;;5.22;2.05;;;;;10.90;95641.00;;;;8284986;28;20198;-80
2022/12/24 01:36:15;;;;;;;11.45;2.15;;;;;10.90;95659.00;;;;8275552;28;20236;-77
2022/12/24 01:44:42;;;;;;;14.20;2.53;;;;;10.90;95671.00;;;;8272192;28;20355;-78
2022/12/24 01:48:49;;;;;;;7.07;1.60;;;;;11.00;95684.00;;;;8282072;28;20345;-77
2022/12/24 01:52:54;;;;;;;13.32;2.30;;;;;10.90;95689.00;;;;8274775;28;20248;-80
2022/12/24 01:57:00;;;;;;;4.10;1.55;;;;;10.80;95681.00;;;;8282140;28;20256;-83
2022/12/24 02:01:04;;;;;;;3.10;1.50;;;;;10.60;95683.00;;;;8270544;28;20556;-79
2022/12/24 02:05:12;;;;;;;3.78;1.38;;;;;10.50;95691.00;;;;8277263;28;20222;-79
2022/12/24 02:09:17;;;;;;;6.85;1.42;;;;;10.50;95692.00;;;;8276083;28;21149;-79
2022/12/24 02:13:21;;;;;;;8.13;1.65;;;;;10.60;95707.00;;;;8280008;28;20206;-80
2022/12/24 02:17:31;;;;;;;8.65;1.80;;;;;10.60;95705.00;;;;8275021;28;20256;-80
2022/12/24 02:21:47;;;;;;;3.85;1.52;;;;;10.60;95724.00;;;;8264891;28;20769;-77
2022/12/24 02:26:13;;;;;;;7.68;1.85;;;;;10.60;95725.00;;;;8277410;28;20210;-81
2022/12/24 02:30:20;;;;;;;7.82;2.00;;;;;10.60;95719.00;;;;8268381;28;20363;-79
2022/12/24 02:34:31;;;;;;;4.45;1.65;;;;;10.60;95729.00;;;;8280932;28;20270;-79
2022/12/24 02:38:41;;;;;;;5.85;1.58;;;;;10.60;95738.00;;;;8275065;28;20545;-79
2022/12/24 02:42:48;;;;;;;12.70;2.15;;;;;10.50;95729.00;;;;8279856;28;20237;-80
2022/12/24 02:46:53;;;;;;;6.93;1.98;;;;;10.50;95744.00;;;;8279225;28;20675;-78
2022/12/24 02:51:03;;;;;;;7.65;1.70;;;;;10.50;95743.00;;;;8280003;28;20910;-83
2022/12/24 02:55:11;;;;;;;10.05;2.08;;;;;10.50;95745.00;;;;8280036;28;20252;-79
2022/12/24 02:59:35;;;;;;;7.95;1.88;;;;;10.40;95759.00;;;;8276981;28;20340;-78
2022/12/24 03:03:49;;;;;;;7.57;2.50;;;;;10.40;95752.00;;;;8330739;22;20224;-80
2022/12/24 03:08:02;;;;;;;6.97;2.03;;;;;10.40;95742.00;;;;8339144;28;20262;-80
2022/12/24 03:12:12;;;;;;;5.10;1.80;;;;;10.40;95755.00;;;;8351991;28;20197;-80
2022/12/24 03:16:19;;;;;;;7.97;1.80;;;;;10.50;95772.00;;;;8340693;28;20201;-79
2022/12/24 03:20:27;;;;;;;3.13;1.60;;;;;10.50;95771.00;;;;8355685;28;20204;-79
2022/12/24 03:24:30;;;;;;;7.82;2.10;;;;;10.60;95788.00;;;;8345837;28;20666;-81
2022/12/24 03:28:33;;;;;;;6.10;1.60;;;;;10.60;95781.00;;;;8351485;28;20243;-80
2022/12/24 03:32:41;;;;;;;5.35;1.90;;;;;10.60;95786.00;;;;8346354;28;20248;-77
2022/12/24 03:36:47;;;;;;;9.90;1.73;;;;;10.50;95784.00;;;;8341972;28;20196;-82
2022/12/24 03:40:50;;;;;;;5.78;1.67;;;;;10.50;95783.00;;;;8356459;28;20266;-82
2022/12/24 03:44:53;;;;;;;6.70;1.80;;;;;10.40;95779.00;;;;8353173;28;20217;-78
2022/12/24 03:48:57;;;;;;;5.25;2.13;;;;;10.40;95785.00;;;;8353201;28;20261;-77
2022/12/24 03:53:02;;;;;;;2.90;2.28;;;;;10.50;95785.00;;;;8343041;28;20197;-85
2022/12/24 03:57:05;;;;;;;8.18;2.15;;;;;10.60;95797.00;;;;8349699;28;20267;-80
2022/12/24 04:01:08;;;;;;;9.05;1.92;;;;;10.60;95812.00;;;;8351186;28;20217;-80
2022/12/24 04:05:15;;;;;;;6.63;1.80;;;;;10.60;95811.00;;;;8349713;28;20284;-80
2022/12/24 04:09:19;;;;;;;9.23;2.08;;;;;10.60;95821.00;;;;8350497;28;20201;-90
2022/12/24 04:13:22;;;;;;;7.22;1.92;;;;;10.60;95820.00;;;;8342581;28;20210;-79
2022/12/24 04:17:25;;;;;;;7.82;2.03;;;;;10.60;95827.00;;;;8343658;28;20198;-80
2022/12/24 04:21:28;;;;;;;4.07;1.63;;;;;10.60;95837.00;;;;8346542;28;20251;-79
2022/12/24 04:25:33;;;;;;;9.50;2.08;;;;;10.60;95848.00;;;;8339888;28;20192;-82
2022/12/24 04:29:36;;;;;;;7.53;2.00;;;;;10.40;95839.00;;;;8344911;28;20235;-78
2022/12/24 04:33:40;;;;;;;6.45;2.22;;;;;10.40;95836.00;;;;8343584;28;20193;-82
2022/12/24 04:37:43;;;;;;;15.63;2.58;;;;;10.30;95835.00;;;;8347648;28;20247;-79
2022/12/24 04:41:47;;;;;;;8.82;1.85;;;;;10.30;95833.00;;;;8342154;28;20228;-79
2022/12/24 04:45:50;;;;;;;7.85;1.90;;;;;10.30;95836.00;;;;8339191;28;21276;-82
2022/12/24 04:49:53;;;;;;;7.28;2.42;;;;;10.30;95847.00;;;;8342857;28;20197;-80
2022/12/24 04:53:57;;;;;;;14.57;2.83;;;;;10.30;95847.00;;;;8341523;28;20888;-80
2022/12/24 04:58:02;;;;;;;9.15;2.15;;;;;10.20;95848.00;;;;8344928;28;20259;-80
2022/12/24 05:02:05;;;;;;;10.20;2.53;;;;;10.20;95852.00;;;;8341045;28;20232;-78
2022/12/24 05:06:12;;;;;;;13.95;2.35;;;;;10.20;95859.00;;;;8337801;28;20208;-82
2022/12/24 05:10:15;;;;;;;9.88;2.53;;;;;10.20;95855.00;;;;8340807;28;20204;-84
2022/12/24 05:14:19;;;;;;;14.75;2.40;;;;;10.10;95859.00;;;;8343858;28;20688;-80
2022/12/24 05:18:23;;;;;;;7.38;2.13;;;;;10.10;95862.00;;;;8336077;28;20207;-81
2022/12/24 05:26:50;;;;;;;10.60;2.33;;;;;10.10;95866.00;;;;8341280;28;20204;-80
2022/12/24 05:30:54;;;;;;;9.45;1.90;;;;;10.10;95869.00;;;;8342557;28;20205;-82
2022/12/24 05:34:57;;;;;;;8.80;2.40;;;;;10.20;95880.00;;;;8344453;28;20578;-79
2022/12/24 05:39:00;;;;;;;8.90;1.95;;;;;10.20;95886.00;;;;8338747;28;20193;-79
2022/12/24 05:43:04;;;;;;;9.88;2.17;;;;;10.20;95893.00;;;;8339269;28;20236;-80
2022/12/24 05:47:08;;;;;;;9.18;2.00;;;;;10.20;95896.00;;;;8338865;28;20610;-78
2022/12/24 05:51:14;;;;;;;7.35;1.85;;;;;10.20;95907.00;;;;8334478;28;20784;-80
2022/12/24 05:55:17;;;;;;;13.30;2.53;;;;;10.10;95910.00;;;;8334556;28;20200;-80
2022/12/24 05:59:21;;;;;;;10.18;2.17;;;;;10.10;95916.00;;;;8336021;28;20200;-80
2022/12/24 06:03:25;;;;;;;9.52;2.40;;;;;10.10;95922.00;;;;8339085;28;20233;-79
2022/12/24 06:07:28;;;;;;;6.10;1.92;;;;;10.10;95928.00;;;;8344167;28;20255;-80
2022/12/24 06:11:33;;;;;;;11.75;2.50;;;;;10.00;95929.00;;;;8344644;28;20212;-79
2022/12/24 06:15:36;;;;;;;8.32;1.85;;;;;10.00;95926.00;;;;8338620;28;20198;-80
2022/12/24 06:19:41;;;;;;;14.93;2.67;;;;;10.00;95928.00;;;;8336198;28;20292;-80
2022/12/24 06:23:45;;;;;;;12.52;2.20;;;;;10.00;95935.00;;;;8336558;28;20282;-80
2022/12/24 06:27:48;;;;;;;12.45;2.20;;;;;10.00;95940.00;;;;8347500;28;20622;-80
2022/12/24 06:31:52;;;;;;;7.28;1.92;;;;;10.00;95947.00;;;;8339131;28;20247;-82
2022/12/24 06:35:56;;;;;;;16.13;2.70;;;;;9.90;95944.00;;;;8334907;28;20209;-78
2022/12/24 06:40:00;;;;;;;13.90;2.05;;;;;9.90;95941.00;;;;8331888;28;20252;-83
2022/12/24 06:44:03;;;;;;;10.02;2.45;;;;;9.90;95958.00;;;;8351194;28;20225;-80
2022/12/24 06:48:07;;;;;;;7.35;2.00;;;;;9.90;95975.00;;;;8345349;28;20192;-80
2022/12/24 06:52:11;;;;;;;10.15;2.40;;;;;9.90;95979.00;;;;8350926;28;20193;-82
2022/12/24 06:56:14;;;;;;;8.50;1.92;;;;;9.80;95976.00;;;;8341200;28;20192;-81
2022/12/24 07:00:20;;;;;;;12.20;2.83;;;;;9.80;95988.00;;;;8340916;28;20201;-81
2022/12/24 07:04:23;;;;;;;9.35;3.15;;;;;9.80;95994.00;;;;8340740;28;20269;-81
2022/12/24 07:08:28;;;;;;;8.60;2.30;;;;;9.80;95995.00;;;;8336316;28;20249;-80
2022/12/24 07:12:31;;;;;;;8.63;2.45;;;;;9.90;96000.00;;;;8339338;28;20264;-80
2022/12/24 07:16:35;;;;;;;14.52;2.58;;;;;9.90;96016.00;;;;8345684;28;20608;-84
2022/12/24 07:20:38;;;;;;;8.30;2.58;;;;;9.90;96021.00;;;;8343020;28;20201;-81
2022/12/24 07:24:42;;;;;;;14.45;2.90;;;;;9.90;96025.00;;;;8336985;28;20276;-80
2022/12/24 07:28:47;;;;;;;14.98;2.50;;;;;10.00;96043.00;;;;8342338;28;20558;-84
2022/12/24 07:32:51;;;;;;;11.40;2.30;;;;;10.00;96024.00;;;;8341482;28;20205;-75
2022/12/24 07:36:55;;;;;;;14.32;2.97;;;;;10.10;96036.00;;;;8339711;28;20241;-75
2022/12/24 07:41:00;;;;;;;12.90;2.45;;;;;10.20;96048.00;;;;8344662;28;20196;-75
2022/12/24 07:45:03;;;;;;;19.92;2.53;;;;;10.20;96052.00;;;;8348492;28;20314;-74
2022/12/24 07:49:07;;;;;;;22.08;3.05;;;;;10.20;96040.00;;;;8353767;28;20201;-75
2022/12/24 07:53:10;;;;;;;12.23;2.40;;;;;10.30;96048.00;;;;8340368;28;20203;-74
2022/12/24 07:57:14;;;;;;;10.43;2.47;;;;;10.20;96062.00;;;;8345618;28;20295;-72
2022/12/24 08:01:18;;;;;;;15.93;3.58;;;;;10.10;96050.00;;;;8339802;28;20229;-73
2022/12/24 08:05:37;;;;;;;10.43;2.85;;;;;9.90;96059.00;;;;8342886;28;20228;-72
2022/12/24 08:09:40;;;;;;;18.77;2.90;;;;;9.90;96059.00;;;;8337764;28;20206;-68
2022/12/24 08:13:47;;;;;;;19.58;3.22;;;;;9.90;96059.00;;;;8336895;28;20205;-69
2022/12/24 08:17:52;;;;;;;12.65;2.97;;;;;10.00;96066.00;;;;8337548;28;20725;-74
2022/12/24 08:21:55;;;;;;;24.63;3.00;;;;;10.00;96062.00;;;;8348015;28;20256;-74
2022/12/24 08:25:59;;;;;;;11.48;2.72;;;;;10.10;96074.00;;;;8337803;28;20229;-80
2022/12/24 08:30:04;;;;;;;22.83;3.45;;;;;10.20;96074.00;;;;8343489;28;20193;-74
2022/12/24 08:34:08;;;;;;;10.32;2.90;;;;;10.20;96061.00;;;;8346932;28;20193;-77
2022/12/24 08:38:11;;;;;;;12.70;2.65;;;;;10.20;96072.00;;;;8350068;28;20206;-79
2022/12/24 08:42:14;;;;;;;11.95;2.50;;;;;10.30;96052.00;;;;8344992;28;20275;-75
2022/12/24 08:46:19;;;;;;;14.48;2.33;;;;;10.30;96056.00;;;;8347607;28;20718;-78
2022/12/24 08:50:22;;;;;;;16.23;2.60;;;;;10.30;96072.00;;;;8345277;28;20631;-75
2022/12/24 08:54:26;;;;;;;18.00;2.90;;;;;10.40;96087.00;;;;8342613;28;20217;-81
2022/12/24 08:58:32;;;;;;;18.77;3.53;;;;;10.30;96093.00;;;;8340678;28;20616;-74
2022/12/24 09:02:37;;;;;;;20.58;3.00;;;;;10.30;96100.00;;;;8332898;28;20282;-78
2022/12/24 09:06:40;;;;;;;16.85;2.97;;;;;10.30;96117.00;;;;8338083;28;20574;-81
2022/12/24 09:10:44;;;;;;;13.18;2.72;;;;;10.40;96117.00;;;;8344616;28;20235;-80
2022/12/24 09:14:51;;;;;;;17.52;3.53;;;;;10.30;96130.00;;;;8340122;28;20603;-80
2022/12/24 09:18:56;;;;;;;21.27;2.72;;;;;10.30;96146.00;;;;8339270;28;20245;-80
2022/12/24 09:23:10;;;;;;;16.87;3.13;;;;;10.40;96141.00;;;;8330965;28;20722;-81
2022/12/24 09:27:14;;;;;;;13.63;2.55;;;;;10.40;96141.00;;;;8331685;28;20340;-83
2022/12/24 09:31:21;;;;;;;24.30;3.65;;;;;10.40;96145.00;;;;8333702;28;20604;-81
2022/12/24 09:35:26;;;;;;;19.40;2.85;;;;;10.50;96151.00;;;;8336497;28;20205;-81
2022/12/24 09:39:29;;;;;;;14.88;2.55;;;;;10.60;96153.00;;;;8337703;28;20209;-83
2022/12/24 09:43:35;;;;;;;22.48;4.82;;;;;10.60;96172.00;;;;8338823;28;20302;-80
2022/12/24 09:47:42;;;;;;;14.63;2.58;;;;;10.70;96177.00;;;;8341617;28;20188;-84
2022/12/24 09:51:51;;;;;;;16.92;2.33;;;;;10.80;96179.00;;;;8338865;28;20201;-80
2022/12/24 09:55:58;;;;;;;12.43;3.22;;;;;10.90;96180.00;;;;8332867;28;20195;-80
2022/12/24 10:00:02;;;;;;;14.95;2.88;;;;;11.00;96192.00;;;;8337000;28;20282;-81
2022/12/24 10:04:12;;;;;;;15.65;3.30;;;;;11.10;96190.00;;;;8332529;28;20233;-80
2022/12/24 10:08:24;;;;;;;14.85;2.60;;;;;11.20;96186.00;;;;8339225;28;20199;-80
2022/12/24 10:12:35;;;;;;;14.27;3.08;;;;;11.30;96170.00;;;;8335923;28;20262;-79
2022/12/24 10:16:51;;;;;;;17.40;3.30;;;;;11.30;96175.00;;;;8336514;28;20676;-84
2022/12/24 10:21:02;;;;;;;18.48;2.58;;;;;11.40;96175.00;;;;8331048;28;20201;-81
2022/12/24 10:25:17;;;;;;;14.70;3.33;;;;;11.40;96176.00;;;;8330475;28;20245;-80
2022/12/24 10:29:23;;;;;;;16.80;2.90;;;;;11.40;96179.00;;;;8334510;28;20199;-76
2022/12/24 10:33:32;;;;;;;16.38;2.70;;;;;11.50;96185.00;;;;8343278;28;20272;-74
2022/12/24 10:37:35;;;;;;;19.98;3.55;;;;;11.50;96189.00;;;;8343166;28;20209;-76
2022/12/24 10:41:40;;;;;;;18.50;2.85;;;;;11.70;96195.00;;;;8339079;28;20306;-75
2022/12/24 10:45:47;;;;;;;14.35;3.05;;;;;11.90;96194.00;;;;8341978;28;20885;-75
2022/12/24 10:49:57;;;;;;;15.27;2.83;;;;;12.10;96194.00;;;;8344264;28;21071;-76
2022/12/24 10:54:06;;;;;;;15.95;3.40;;;;;12.30;96201.00;;;;8342748;28;20754;-74
2022/12/24 10:58:16;;;;;;;15.00;3.03;;;;;12.50;96195.00;;;;8336459;28;20207;-74
2022/12/24 11:02:27;;;;;;;11.93;3.47;;;;;12.70;96186.00;;;;8333084;28;20547;-76
2022/12/24 11:06:31;;;;;;;8.48;2.92;;;;;12.80;96182.00;;;;8333608;28;20736;-74
2022/12/24 11:10:39;;;;;;;8.85;2.58;;;;;12.70;96185.00;;;;8333826;28;20204;-73
2022/12/24 11:14:44;;;;;;;6.78;2.55;;;;;12.90;96197.00;;;;8334340;28;20207;-74
2022/12/24 11:18:49;;;;;;;11.75;2.20;;;;;12.90;96197.00;;;;8334931;28;20258;-74
2022/12/24 11:22:55;;;;;;;11.40;2.65;;;;;13.00;96206.00;;;;8335061;28;20201;-74
2022/12/24 11:27:23;;;;;;;9.43;2.42;;;;;13.10;96204.00;;;;8348472;28;20255;-75
2022/12/24 11:31:34;;;;;;;15.90;2.75;;;;;13.10;96189.00;;;;8344081;28;20197;-75
2022/12/24 11:35:42;;;;;;;8.75;2.42;;;;;13.10;96204.00;;;;8342303;28;20208;-74
2022/12/24 11:39:49;;;;;;;19.45;6.50;;;;;13.10;96202.00;;;;8346991;28;20244;-74
2022/12/24 11:44:02;;;;;;;15.98;7.32;;;;;13.20;96197.00;;;;8343037;28;20207;-75
2022/12/24 11:48:25;;;;;;;23.27;10.27;;;;;13.20;96189.00;;;;8346246;28;20200;-75
2022/12/24 11:52:30;;;;;;;13.48;4.50;;;;;13.10;96179.00;;;;8350589;28;20630;-74
2022/12/24 11:56:40;;;;;;;35.08;22.77;;;;;12.90;96184.00;;;;8345778;28;20783;-75
2022/12/24 12:00:45;;;;;;;15.50;5.82;;;;;12.70;96167.00;;;;8344112;28;20197;-75
2022/12/24 12:04:53;;;;;;;17.63;8.60;;;;;12.70;96179.00;;;;8347256;28;20304;-75
2022/12/24 12:08:59;;;;;;;10.70;4.43;;;;;12.70;96173.00;;;;8346016;28;20206;-76
2022/12/24 12:13:06;;;;;;;23.33;3.33;;;;;12.80;96186.00;;;;8350724;28;20208;-77
2022/12/24 12:17:27;;;;;;;17.35;2.85;;;;;12.90;96187.00;;;;8346941;28;20288;-75
2022/12/24 12:21:57;;;;;;;15.50;2.60;;;;;12.90;96201.00;;;;8346219;28;20275;-75
2022/12/24 12:26:10;;;;;;;17.77;4.40;;;;;12.80;96214.00;;;;8342423;28;20387;-75
2022/12/24 12:30:16;;;;;;;12.05;2.72;;;;;12.60;96207.00;;;;8334651;28;20652;-75
2022/12/24 12:34:36;;;;;;;11.27;2.83;;;;;12.50;96192.00;;;;8339926;28;20200;-77
2022/12/24 12:38:41;;;;;;;11.45;2.80;;;;;12.30;96217.00;;;;8337530;28;20931;-76
2022/12/24 12:42:52;;;;;;;11.05;3.58;;;;;12.30;96195.00;;;;8333343;28;20200;-75
2022/12/24 12:47:16;;;;;;;10.18;2.75;;;;;12.30;96203.00;;;;8340069;28;20239;-75
2022/12/24 12:51:25;;;;;;;8.80;2.50;;;;;12.30;96202.00;;;;8340440;28;20657;-75
2022/12/24 12:55:42;;;;;;;6.78;2.05;;;;;12.40;96203.00;;;;8334729;28;20234;-75
2022/12/24 12:59:51;;;;;;;13.15;2.72;;;;;12.50;96202.00;;;;8338639;28;20204;-76
2022/12/24 13:04:41;;;;;;;14.73;2.50;;;;;12.50;96213.00;;;;8344959;28;20239;-76
2022/12/24 13:09:06;;;;;;;10.27;2.45;;;;;12.50;96221.00;;;;8332283;28;20250;-75
2022/12/24 13:13:30;;;;;;;9.32;2.72;;;;;12.70;96212.00;;;;8340869;28;20207;-76
2022/12/24 13:17:52;;;;;;;12.10;2.28;;;;;12.80;96219.00;;;;8332380;28;20716;-76
2022/12/24 13:21:56;;;;;;;8.73;2.70;;;;;13.00;96233.00;;;;8341298;28;20215;-78
2022/12/24 13:26:11;;;;;;;11.60;3.42;;;;;13.10;96239.00;;;;8342445;28;20232;-78
2022/12/24 13:30:35;;;;;;;16.17;2.80;;;;;13.30;96248.00;;;;8348097;28;20812;-77
2022/12/24 13:34:40;;;;;;;9.30;2.95;;;;;13.20;96248.00;;;;8336465;28;20839;-78
2022/12/24 13:38:44;;;;;;;16.10;2.72;;;;;13.20;96252.00;;;;8330484;28;22266;-75
2022/12/24 13:42:50;;;;;;;12.43;2.17;;;;;13.10;96261.00;;;;8331766;28;20197;-75
2022/12/24 13:46:59;;;;;;;11.95;2.50;;;;;13.00;96264.00;;;;8330813;28;20384;-77
2022/12/24 13:51:24;;;;;;;10.45;2.40;;;;;12.80;96270.00;;;;8339803;28;20238;-76
2022/12/24 13:55:28;;;;;;;10.63;2.83;;;;;12.70;96264.00;;;;8342259;28;20227;-76
2022/12/24 13:59:36;;;;;;;15.70;2.90;;;;;12.50;96267.00;;;;8338150;28;20802;-76
2022/12/24 14:03:44;;;;;;;10.43;2.42;;;;;12.40;96264.00;;;;8339253;28;21078;-76
2022/12/24 14:07:50;;;;;;;14.65;2.70;;;;;12.20;96264.00;;;;8342035;28;20362;-76
2022/12/24 14:12:14;;;;;;;19.25;2.70;;;;;12.20;96271.00;;;;8337128;28;20208;-75
2022/12/24 14:16:20;;;;;;;12.80;2.72;;;;;12.30;96275.00;;;;8318984;28;20205;-76
2022/12/24 14:20:23;;;;;;;13.63;2.95;;;;;12.20;96278.00;;;;8328924;28;20206;-75
2022/12/24 14:24:34;;;;;;;16.38;2.80;;;;;12.20;96277.00;;;;8339473;28;20219;-75
2022/12/24 14:28:43;;;;;;;17.05;3.17;;;;;12.10;96288.00;;;;8348211;28;20217;-75
2022/12/24 14:32:47;;;;;;;14.70;2.72;;;;;11.90;96294.00;;;;8338575;28;20208;-74
2022/12/24 14:36:53;;;;;;;12.63;2.78;;;;;11.80;96277.00;;;;8323860;28;20215;-74
2022/12/24 14:41:06;;;;;;;13.10;2.92;;;;;11.70;96289.00;;;;8335952;28;20608;-74
2022/12/24 14:45:19;;;;;;;11.23;2.50;;;;;11.50;96290.00;;;;8335372;28;20616;-75
2022/12/24 14:49:34;;;;;;;11.63;2.97;;;;;11.50;96302.00;;;;8331450;28;20240;-74
2022/12/24 14:53:55;;;;;;;16.77;3.60;;;;;11.40;96301.00;;;;8332665;28;20741;-75
2022/12/24 14:58:27;;;;;;;13.43;2.53;;;;;11.40;96308.00;;;;8339959;28;20232;-75
2022/12/24 15:02:39;;;;;;;7.88;2.80;;;;;11.50;96314.00;;;;8340601;28;20243;-75
2022/12/24 15:06:48;;;;;;;12.75;2.80;;;;;11.50;96326.00;;;;8338413;28;20237;-75
2022/12/24 15:10:53;;;;;;;18.70;2.60;;;;;11.50;96329.00;;;;8348622;28;20548;-75
2022/12/24 15:14:59;;;;;;;9.43;2.53;;;;;11.40;96321.00;;;;8350261;28;20189;-75
2022/12/24 15:19:04;;;;;;;11.10;2.72;;;;;11.40;96308.00;;;;8336552;28;20204;-75
2022/12/24 15:23:18;;;;;;;12.57;2.65;;;;;11.30;96318.00;;;;8344814;28;20201;-75
2022/12/24 15:27:23;;;;;;;14.85;2.97;;;;;11.20;96321.00;;;;8339620;28;20229;-75
2022/12/24 15:31:30;;;;;;;16.13;3.40;;;;;11.10;96327.00;;;;8338620;28;20286;-74
2022/12/24 15:35:49;;;;;;;9.07;3.42;;;;;10.90;96318.00;;;;8348072;28;20204;-74
2022/12/24 15:39:55;;;;;;;14.23;3.42;;;;;10.70;96325.00;;;;8350628;28;20209;-74
2022/12/24 15:44:02;;;;;;;13.20;3.80;;;;;10.40;96319.00;;;;8344588;28;20216;-74
2022/12/24 15:48:11;;;;;;;19.80;4.07;;;;;10.20;96320.00;;;;8347879;28;20905;-74
2022/12/24 15:52:16;;;;;;;10.95;3.63;;;;;10.00;96314.00;;;;8343067;28;20554;-74
2022/12/24 15:56:31;;;;;;;17.50;4.93;;;;;9.90;96319.00;;;;8343038;28;20265;-74
2022/12/24 16:00:34;;;;;;;13.25;4.00;;;;;9.70;96325.00;;;;8341198;28;20194;-74
2022/12/24 16:04:38;;;;;;;12.90;2.60;;;;;9.60;96323.00;;;;8337428;28;20680;-73
2022/12/24 16:08:42;;;;;;;13.95;2.65;;;;;9.50;96323.00;;;;8342323;28;20304;-74
2022/12/24 16:12:46;;;;;;;15.85;3.50;;;;;9.40;96320.00;;;;8342540;28;20255;-75
2022/12/24 16:16:51;;;;;;;9.48;2.55;;;;;9.30;96315.00;;;;8346142;28;20203;-74
2022/12/24 16:20:57;;;;;;;8.00;2.90;;;;;9.20;96330.00;;;;8343212;28;20219;-74
2022/12/24 16:25:01;;;;;;;12.60;2.80;;;;;9.10;96339.00;;;;8338517;28;20201;-74
2022/12/24 16:29:04;;;;;;;9.30;3.00;;;;;9.00;96351.00;;;;8345132;28;20244;-74
2022/12/24 16:33:14;;;;;;;19.53;4.67;;;;;9.00;96356.00;;;;8337299;28;20540;-75
2022/12/24 16:37:18;;;;;;;22.85;4.30;;;;;9.00;96370.00;;;;8337964;28;20208;-75
2022/12/24 16:41:22;;;;;;;11.65;3.72;;;;;8.90;96370.00;;;;8345292;28;20205;-75
2022/12/24 16:45:25;;;;;;;18.77;4.93;;;;;8.90;96370.00;;;;8343861;28;20235;-75
2022/12/24 16:49:29;;;;;;;17.83;3.40;;;;;8.80;96370.00;;;;8346968;28;20275;-75
2022/12/24 16:53:34;;;;;;;9.20;2.85;;;;;8.70;96370.00;;;;8345421;28;20247;-75
2022/12/24 16:57:40;;;;;;;6.85;3.30;;;;;8.70;96381.00;;;;8337872;28;20209;-75
2022/12/24 17:01:50;;;;;;;9.95;2.92;;;;;8.60;96391.00;;;;8334242;28;20243;-75
2022/12/24 17:05:53;;;;;;;11.65;2.75;;;;;8.50;96385.00;;;;8340795;28;20783;-75
2022/12/24 17:09:58;;;;;;;18.40;3.22;;;;;8.50;96392.00;;;;8336999;28;20336;-75
2022/12/24 17:14:02;;;;;;;11.30;2.90;;;;;8.50;96397.00;;;;8347060;28;20620;-75
2022/12/24 17:18:10;;;;;;;14.07;3.05;;;;;8.40;96397.00;;;;8337267;28;20205;-75
2022/12/24 17:22:13;;;;;;;8.60;2.67;;;;;8.30;96399.00;;;;8335547;28;20605;-75
2022/12/24 17:26:17;;;;;;;11.73;2.70;;;;;8.20;96406.00;;;;8342975;28;20286;-75
2022/12/24 17:30:21;;;;;;;11.00;2.90;;;;;8.20;96408.00;;;;8346465;28;20200;-75
2022/12/24 17:34:24;;;;;;;10.57;2.90;;;;;8.20;96411.00;;;;8342771;28;20550;-75
2022/12/24 17:38:27;;;;;;;21.70;3.50;;;;;8.30;96404.00;;;;8349666;28;20269;-75
2022/12/24 17:42:31;;;;;;;14.85;3.60;;;;;8.30;96410.00;;;;8342864;28;20249;-75
2022/12/24 17:46:34;;;;;;;10.97;3.00;;;;;8.40;96410.00;;;;8335403;28;20232;-75
2022/12/24 17:50:39;;;;;;;17.08;4.97;;;;;8.50;96405.00;;;;8340856;28;20197;-75
2022/12/24 17:54:42;;;;;;;15.60;4.50;;;;;8.60;96397.00;;;;8335371;28;20193;-75
2022/12/24 17:58:47;;;;;;;16.27;4.32;;;;;8.60;96402.00;;;;8330272;28;20204;-75
2022/12/24 18:02:50;;;;;;;10.35;3.67;;;;;8.60;96402.00;;;;8333696;28;20225;-74
2022/12/24 18:06:54;;;;;;;8.27;4.10;;;;;8.70;96396.00;;;;8330357;28;20232;-74
2022/12/24 18:11:12;;;;;;;13.30;3.67;;;;;8.70;96408.00;;;;8338534;28;20185;-74
2022/12/24 18:15:19;;;;;;;17.65;4.43;;;;;8.70;96419.00;;;;8338854;28;20197;-74
2022/12/24 18:19:23;;;;;;;8.48;2.90;;;;;8.70;96422.00;;;;8343906;28;20204;-74
2022/12/24 18:23:26;;;;;;;7.32;4.03;;;;;8.60;96413.00;;;;8334858;28;20217;-74
2022/12/24 18:27:29;;;;;;;15.57;4.50;;;;;8.60;96415.00;;;;8336245;28;20263;-74
2022/12/24 18:31:33;;;;;;;15.02;4.20;;;;;8.60;96430.00;;;;8342701;28;20213;-74
2022/12/24 18:35:45;;;;;;;9.90;4.00;;;;;8.60;96429.00;;;;8343660;28;20316;-74
2022/12/24 18:39:48;;;;;;;17.73;10.10;;;;;8.60;96439.00;;;;8350990;28;20209;-74
2022/12/24 18:43:52;;;;;;;13.32;6.00;;;;;8.70;96435.00;;;;8349561;28;20787;-73
2022/12/24 18:47:56;;;;;;;16.38;10.80;;;;;8.70;96441.00;;;;8346572;28;20282;-76
2022/12/24 18:52:02;;;;;;;18.05;5.28;;;;;8.80;96441.00;;;;8340431;28;20252;-75
2022/12/24 18:56:07;;;;;;;12.57;7.88;;;;;8.90;96442.00;;;;8347912;28;20213;-75
2022/12/24 19:00:11;;;;;;;12.15;4.70;;;;;9.00;96447.00;;;;8345864;28;20547;-75
2022/12/24 19:04:16;;;;;;;13.60;8.05;;;;;9.10;96455.00;;;;8340318;28;20229;-75
2022/12/24 19:08:19;;;;;;;9.07;3.70;;;;;9.30;96455.00;;;;8352025;28;20222;-75
2022/12/24 19:12:42;;;;;;;7.57;2.85;;;;;9.40;96448.00;;;;8347038;28;20196;-75
2022/12/24 19:16:46;;;;;;;9.95;3.38;;;;;9.50;96450.00;;;;8351900;28;20194;-75
2022/12/24 19:20:51;;;;;;;5.97;2.92;;;;;9.60;96460.00;;;;8346791;28;20203;-75
2022/12/24 19:24:54;;;;;;;6.68;2.55;;;;;9.60;96464.00;;;;8350016;28;20204;-75
2022/12/24 19:28:57;;;;;;;7.82;2.65;;;;;9.60;96463.00;;;;8348961;28;20218;-75
2022/12/24 19:33:00;;;;;;;6.13;2.70;;;;;9.70;96468.00;;;;8339250;28;20255;-75
2022/12/24 19:37:05;;;;;;;10.20;2.55;;;;;9.70;96454.00;;;;8343056;28;20205;-75
2022/12/24 19:41:12;;;;;;;7.55;2.33;;;;;9.70;96455.00;;;;8347345;28;20651;-74
2022/12/24 19:45:15;;;;;;;8.68;2.25;;;;;9.70;96454.00;;;;8346196;28;20198;-75
2022/12/24 19:49:21;;;;;;;8.85;2.42;;;;;9.70;96447.00;;;;8351064;28;20591;-75
2022/12/24 19:53:26;;;;;;;4.20;2.63;;;;;9.70;96444.00;;;;8351487;28;20201;-75
2022/12/24 19:57:29;;;;;;;7.93;2.72;;;;;9.70;96451.00;;;;8342889;28;20258;-75
2022/12/24 20:01:34;;;;;;;4.32;2.17;;;;;9.70;96458.00;;;;8345154;28;20240;-75
2022/12/24 20:05:40;;;;;;;4.55;2.30;;;;;9.60;96460.00;;;;8339232;28;20734;-75
2022/12/24 20:09:45;;;;;;;5.30;2.15;;;;;9.60;96463.00;;;;8334316;28;20513;-76
2022/12/24 20:13:48;;;;;;;4.55;2.30;;;;;9.60;96461.00;;;;8337035;28;20642;-75
2022/12/24 20:17:58;;;;;;;11.00;3.67;;;;;9.60;96453.00;;;;8339628;28;20590;-75
2022/12/24 20:22:01;;;;;;;6.05;2.50;;;;;9.60;96468.00;;;;8335227;28;20621;-74
2022/12/24 20:26:07;;;;;;;6.53;2.90;;;;;9.60;96487.00;;;;8344267;28;20201;-75
2022/12/24 20:30:11;;;;;;;7.03;2.58;;;;;9.60;96491.00;;;;8351546;28;20719;-75
2022/12/24 20:34:14;;;;;;;10.00;2.63;;;;;9.60;96491.00;;;;8341027;28;20198;-76
2022/12/24 20:38:17;;;;;;;4.07;2.33;;;;;9.70;96490.00;;;;8336283;28;20826;-75